sensor_id;sensor_type;location;lat;lon;timestamp;pressure;altitude;pressure_sealevel;temperature;humidity
30338;BME280;17143;51.888;5.408;2023-02-02T00:13:45;101953.41;;;8.45;100.00
30338;BME280;17143;51.888;5.408;2023-02-02T00:28:47;101950.34;;;8.39;100.00
30338;BME280;17143;51.888;5.408;2023-02-02T00:43:49;101948.28;;;8.35;100.00
30338;BME280;17143;51.888;5.408;2023-02-02T00:58:51;101944.25;;;8.38;100.00
30338;BME280;17143;51.888;5.408;2023-02-02T01:13:53;101939.66;;;8.46;100.00
30338;BME280;17143;51.888;5.408;2023-02-02T01:28:56;101954.47;;;8.47;100.00
30338;BME280;17143;51.888;5.408;2023-02-02T01:43:59;101958.91;;;8.38;100.00
30338;BME280;17143;51.888;5.408;2023-02-02T01:59:03;101963.56;;;8.42;100.00
30338;BME280;17143;51.888;5.408;2023-02-02T02:14:08;101963.09;;;8.26;100.00
30338;BME280;17143;51.888;5.408;2023-02-02T02:29:41;101963.59;;;8.32;100.00
30338;BME280;17143;51.888;5.408;2023-02-02T02:44:50;101958.81;;;8.36;100.00
30338;BME280;17143;51.888;5.408;2023-02-02T03:00:01;101945.63;;;8.45;100.00
30338;BME280;17143;51.888;5.408;2023-02-02T03:15:06;101933.72;;;8.37;100.00
30338;BME280;17143;51.888;5.408;2023-02-02T03:30:10;101932.03;;;8.37;100.00
30338;BME280;17143;51.888;5.408;2023-02-02T03:45:13;101976.97;;;8.36;100.00
30338;BME280;17143;51.888;5.408;2023-02-02T04:00:15;101979.94;;;8.41;100.00
30338;BME280;17143;51.888;5.408;2023-02-02T04:15:18;101973.19;;;8.43;100.00
30338;BME280;17143;51.888;5.408;2023-02-02T04:30:20;101958.09;;;8.49;100.00
30338;BME280;17143;51.888;5.408;2023-02-02T04:45:22;101965.06;;;8.50;100.00
30338;BME280;17143;51.888;5.408;2023-02-02T05:00:24;101961.28;;;8.56;100.00
30338;BME280;17143;51.888;5.408;2023-02-02T05:15:26;101977.22;;;8.61;100.00
30338;BME280;17143;51.888;5.408;2023-02-02T05:30:28;102000.19;;;8.67;100.00
30338;BME280;17143;51.888;5.408;2023-02-02T05:45:30;101988.47;;;8.72;100.00
30338;BME280;17143;51.888;5.408;2023-02-02T06:00:32;101975.63;;;8.73;100.00
30338;BME280;17143;51.888;5.408;2023-02-02T06:15:35;102000.56;;;8.71;100.00
30338;BME280;17143;51.888;5.408;2023-02-02T06:30:37;101991.25;;;8.63;100.00
30338;BME280;17143;51.888;5.408;2023-02-02T06:45:39;102027.50;;;8.62;100.00
30338;BME280;17143;51.888;5.408;2023-02-02T07:00:41;102037.88;;;8.62;100.00
30338;BME280;17143;51.888;5.408;2023-02-02T07:15:43;102040.78;;;8.54;100.00
30338;BME280;17143;51.888;5.408;2023-02-02T07:30:45;102050.56;;;8.47;100.00
30338;BME280;17143;51.888;5.408;2023-02-02T07:45:47;102061.06;;;8.48;100.00
30338;BME280;17143;51.888;5.408;2023-02-02T08:00:49;102077.53;;;8.49;100.00
30338;BME280;17143;51.888;5.408;2023-02-02T08:15:51;102099.31;;;8.61;100.00
30338;BME280;17143;51.888;5.408;2023-02-02T08:30:53;102123.81;;;8.75;100.00
30338;BME280;17143;51.888;5.408;2023-02-02T08:45:55;102137.16;;;8.79;100.00
30338;BME280;17143;51.888;5.408;2023-02-02T09:01:04;102154.03;;;8.94;100.00
30338;BME280;17143;51.888;5.408;2023-02-02T09:16:09;102159.81;;;9.12;100.00
30338;BME280;17143;51.888;5.408;2023-02-02T09:31:11;102183.59;;;9.38;100.00
30338;BME280;17143;51.888;5.408;2023-02-02T09:46:20;102210.47;;;9.92;100.00
30338;BME280;17143;51.888;5.408;2023-02-02T10:01:30;102226.75;;;9.68;100.00
30338;BME280;17143;51.888;5.408;2023-02-02T10:16:35;102224.16;;;9.68;100.00
30338;BME280;17143;51.888;5.408;2023-02-02T10:31:43;102238.19;;;9.70;100.00
30338;BME280;17143;51.888;5.408;2023-02-02T10:46:51;102256.97;;;9.66;100.00
30338;BME280;17143;51.888;5.408;2023-02-02T11:01:54;102249.94;;;9.65;100.00
30338;BME280;17143;51.888;5.408;2023-02-02T11:17:02;102247.00;;;9.82;100.00
30338;BME280;17143;51.888;5.408;2023-02-02T11:32:25;102248.97;;;9.96;100.00
30338;BME280;17143;51.888;5.408;2023-02-02T11:47:29;102233.97;;;9.82;100.00
30338;BME280;17143;51.888;5.408;2023-02-02T12:02:32;102252.31;;;9.84;100.00
30338;BME280;17143;51.888;5.408;2023-02-02T12:17:36;102237.09;;;9.78;100.00
30338;BME280;17143;51.888;5.408;2023-02-02T12:32:51;102238.97;;;9.69;100.00
30338;BME280;17143;51.888;5.408;2023-02-02T12:48:07;102240.75;;;9.48;100.00
30338;BME280;17143;51.888;5.408;2023-02-02T13:03:21;102248.28;;;9.24;100.00
30338;BME280;17143;51.888;5.408;2023-02-02T13:18:31;102237.13;;;9.14;100.00
30338;BME280;17143;51.888;5.408;2023-02-02T13:33:36;102225.75;;;9.02;100.00
30338;BME280;17143;51.888;5.408;2023-02-02T13:48:46;102234.28;;;9.11;100.00
30338;BME280;17143;51.888;5.408;2023-02-02T14:03:54;102238.03;;;9.15;100.00
30338;BME280;17143;51.888;5.408;2023-02-02T14:18:57;102247.63;;;9.26;100.00
30338;BME280;17143;51.888;5.408;2023-02-02T14:34:25;102257.25;;;9.17;100.00
30338;BME280;17143;51.888;5.408;2023-02-02T14:49:31;102270.69;;;9.01;100.00
30338;BME280;17143;51.888;5.408;2023-02-02T15:04:35;102276.84;;;8.92;100.00
30338;BME280;17143;51.888;5.408;2023-02-02T15:19:39;102278.50;;;8.91;100.00
30338;BME280;17143;51.888;5.408;2023-02-02T15:34:45;102279.81;;;8.86;100.00
30338;BME280;17143;51.888;5.408;2023-02-02T15:49:48;102291.75;;;8.84;100.00
30338;BME280;17143;51.888;5.408;2023-02-02T16:04:50;102296.47;;;8.78;100.00
30338;BME280;17143;51.888;5.408;2023-02-02T16:19:56;102314.75;;;8.80;100.00
30338;BME280;17143;51.888;5.408;2023-02-02T16:35:01;102335.69;;;8.81;100.00
30338;BME280;17143;51.888;5.408;2023-02-02T16:50:26;102338.53;;;8.84;100.00
30338;BME280;17143;51.888;5.408;2023-02-02T17:05:30;102369.97;;;8.87;100.00
30338;BME280;17143;51.888;5.408;2023-02-02T17:20:33;102370.50;;;8.93;100.00
30338;BME280;17143;51.888;5.408;2023-02-02T17:35:35;102377.53;;;8.94;100.00
30338;BME280;17143;51.888;5.408;2023-02-02T17:50:38;102379.59;;;8.98;100.00
30338;BME280;17143;51.888;5.408;2023-02-02T18:05:41;102377.53;;;8.94;100.00
30338;BME280;17143;51.888;5.408;2023-02-02T18:20:44;102360.00;;;8.92;100.00
30338;BME280;17143;51.888;5.408;2023-02-02T18:35:47;102348.69;;;8.91;100.00
30338;BME280;17143;51.888;5.408;2023-02-02T18:50:49;102348.69;;;8.91;100.00
30338;BME280;17143;51.888;5.408;2023-02-02T19:05:51;102344.00;;;8.87;100.00
30338;BME280;17143;51.888;5.408;2023-02-02T19:20:53;102347.13;;;8.83;100.00
30338;BME280;17143;51.888;5.408;2023-02-02T19:35:55;102341.13;;;8.74;100.00
30338;BME280;17143;51.888;5.408;2023-02-02T19:50:57;102336.31;;;8.69;100.00
30338;BME280;17143;51.888;5.408;2023-02-02T20:06:02;102345.56;;;8.85;100.00
30338;BME280;17143;51.888;5.408;2023-02-02T20:21:08;102349.44;;;8.90;100.00
30338;BME280;17143;51.888;5.408;2023-02-02T20:36:34;102367.41;;;8.97;100.00
30338;BME280;17143;51.888;5.408;2023-02-02T20:51:36;102360.63;;;8.99;100.00
30338;BME280;17143;51.888;5.408;2023-02-02T21:06:39;102371.03;;;8.99;100.00
30338;BME280;17143;51.888;5.408;2023-02-02T21:21:41;102374.66;;;9.01;100.00
30338;BME280;17143;51.888;5.408;2023-02-02T21:36:45;102382.44;;;9.11;100.00
30338;BME280;17143;51.888;5.408;2023-02-02T21:51:48;102365.06;;;9.10;100.00
30338;BME280;17143;51.888;5.408;2023-02-02T22:06:51;102358.03;;;9.09;100.00
30338;BME280;17143;51.888;5.408;2023-02-02T22:22:09;102348.16;;;9.15;100.00
30338;BME280;17143;51.888;5.408;2023-02-02T22:37:12;102340.06;;;9.23;100.00
30338;BME280;17143;51.888;5.408;2023-02-02T22:52:14;102344.72;;;9.27;100.00
30338;BME280;17143;51.888;5.408;2023-02-02T23:07:17;102318.88;;;9.28;100.00
30338;BME280;17143;51.888;5.408;2023-02-02T23:22:19;102267.38;;;9.34;100.00
30338;BME280;17143;51.888;5.408;2023-02-02T23:37:21;102274.38;;;9.35;100.00
30338;BME280;17143;51.888;5.408;2023-02-02T23:52:23;102281.13;;;9.33;100.00
